X  Κλείσε Στοιχεία αεροπορικών μετεωρολογικών δεδομένων METAR     LYNI Nis Airport
θερμοκρασία
1°C θερμοκρασία
-3°C Σημείο δρόσου
75% Υγρασία



Ανεμος
0 M/S
1 MPH
2 KM/H
1 KTS



10°
V
Τρέχουσες συνθήκες

Κυρίως συννεφιά Κυρίως συννεφιά
πίεση 1015.92 (hPa) - 30 (inHg)
Ορατότητα 6.2 (μίλι) - 10 (km)
Aεροδρόμιο
Κωδικός αεροδρομίου LYNI

Τοποθεσία: Nis Airport
Απόσταση: 63 (km)

Metar:
LYNI 301530Z 01001KT 9999 BKN033 01/M03 Q1016 NOSIG

ώρα: 30-01-2023 16:30 CET